createdAt,value
2018-11-13T00:01:02.113Z,55.20
2018-11-13T00:03:33.470Z,56.83
2018-11-13T00:06:05.078Z,55.13
2018-11-13T00:08:40.794Z,60.13
2018-11-13T00:11:12.992Z,57.53
2018-11-13T00:13:47.510Z,61.17
2018-11-13T00:16:19.627Z,59.60
2018-11-13T00:18:51.760Z,59.33
2018-11-13T00:21:22.930Z,60.23
2018-11-13T00:23:54.034Z,64.70
2018-11-13T00:26:25.458Z,59.40
2018-11-13T00:28:56.976Z,67.00
2018-11-13T00:31:28.489Z,62.03
2018-11-13T00:34:00.181Z,63.87
2018-11-13T00:36:31.663Z,59.67
2018-11-13T00:39:02.784Z,57.63
2018-11-13T00:41:34.702Z,55.40
2018-11-13T00:44:06.580Z,65.80
2018-11-13T00:46:38.400Z,69.80
2018-11-13T00:49:09.905Z,68.97
2018-11-13T00:51:42.007Z,64.57
2018-11-13T00:54:13.992Z,59.93
2018-11-13T00:56:45.033Z,65.03
2018-11-13T00:59:16.768Z,60.97
2018-11-13T01:01:48.583Z,57.07
2018-11-13T01:04:19.781Z,53.50
2018-11-13T01:06:51.190Z,53.43
2018-11-13T01:09:22.291Z,60.07
2018-11-13T01:11:54.142Z,56.90
2018-11-13T01:14:25.676Z,54.27
2018-11-13T01:16:58.128Z,52.80
2018-11-13T01:19:29.500Z,55.57
2018-11-13T01:22:07.192Z,53.93
2018-11-13T01:24:38.305Z,53.43
2018-11-13T01:27:09.417Z,50.00
2018-11-13T01:29:40.879Z,54.43
2018-11-13T01:32:11.891Z,55.73
2018-11-13T01:34:43.941Z,49.23
2018-11-13T01:37:15.418Z,54.63
2018-11-13T01:39:46.577Z,52.37
2018-11-13T01:42:18.055Z,57.73
2018-11-13T01:44:49.580Z,64.70
2018-11-13T01:47:20.599Z,67.13
2018-11-13T01:49:52.575Z,64.27
2018-11-13T01:52:23.576Z,57.50
2018-11-13T01:54:54.746Z,69.47
2018-11-13T01:57:26.023Z,52.00
2018-11-13T01:59:58.202Z,54.93
2018-11-13T02:02:29.354Z,50.00
2018-11-13T02:05:01.352Z,52.57
2018-11-13T02:07:32.378Z,53.57
2018-11-13T02:10:03.469Z,52.43
2018-11-13T02:12:35.764Z,61.80
2018-11-13T02:15:07.537Z,60.13
2018-11-13T02:17:39.107Z,56.30
2018-11-13T02:20:18.633Z,55.27
2018-11-13T02:22:49.740Z,58.40
2018-11-13T02:25:21.614Z,55.20
2018-11-13T02:27:52.646Z,59.73
2018-11-13T02:30:24.533Z,55.60
2018-11-13T02:32:56.305Z,47.23
2018-11-13T02:35:27.476Z,45.97
2018-11-13T02:38:00.255Z,47.03
2018-11-13T02:40:32.500Z,48.80
2018-11-13T02:43:03.657Z,45.37
2018-11-13T02:45:35.049Z,47.00
2018-11-13T02:48:06.316Z,43.23
2018-11-13T02:50:37.312Z,49.37
2018-11-13T02:53:09.094Z,52.60
2018-11-13T02:55:40.185Z,51.37
2018-11-13T02:58:11.537Z,55.30
2018-11-13T03:00:42.696Z,56.77
2018-11-13T03:03:14.178Z,61.90
2018-11-13T03:05:45.308Z,50.47
2018-11-13T03:08:16.823Z,56.47
2018-11-13T03:10:47.845Z,49.40
2018-11-13T03:13:18.873Z,49.83
2018-11-13T03:15:51.280Z,47.27
2018-11-13T03:18:24.532Z,46.60
2018-11-13T03:20:56.445Z,50.10
2018-11-13T03:23:27.491Z,52.10
2018-11-13T03:25:59.505Z,48.60
2018-11-13T03:28:31.272Z,47.77
2018-11-13T03:31:03.040Z,46.70
2018-11-13T03:33:33.996Z,45.00
2018-11-13T03:36:05.011Z,45.30
2018-11-13T03:38:37.465Z,47.47
2018-11-13T03:41:09.229Z,49.47
2018-11-13T03:43:40.302Z,52.53
2018-11-13T03:46:11.310Z,46.80
2018-11-13T03:48:42.737Z,45.03
2018-11-13T03:51:14.516Z,46.40
2018-11-13T03:53:47.297Z,47.60
2018-11-13T03:56:19.116Z,52.10
2018-11-13T03:58:52.576Z,52.53
2018-11-13T04:01:23.631Z,50.43
2018-11-13T04:03:54.770Z,48.80
2018-11-13T04:06:26.595Z,50.40
2018-11-13T04:08:58.251Z,44.23
2018-11-13T04:11:29.786Z,47.67
2018-11-13T04:14:00.845Z,44.57
2018-11-13T04:16:31.885Z,40.77
2018-11-13T04:19:05.700Z,41.60
2018-11-13T04:21:38.405Z,42.90
2018-11-13T04:24:09.452Z,39.10
2018-11-13T04:26:40.650Z,38.57
2018-11-13T04:29:12.619Z,39.83
2018-11-13T04:31:44.066Z,41.20
2018-11-13T04:34:15.093Z,43.67
2018-11-13T04:36:46.830Z,45.80
2018-11-13T04:39:18.113Z,41.77
2018-11-13T04:41:49.573Z,50.77
2018-11-13T04:44:20.956Z,48.73
2018-11-13T04:46:52.853Z,61.73
2018-11-13T04:49:24.197Z,51.80
2018-11-13T04:51:56.347Z,58.07
2018-11-13T04:54:29.101Z,58.17
2018-11-13T04:57:00.142Z,79.77
2018-11-13T04:59:31.948Z,77.90
2018-11-13T05:02:03.293Z,94.33
2018-11-13T05:04:34.344Z,87.87
2018-11-13T05:07:06.298Z,80.20
2018-11-13T05:09:38.695Z,85.57
2018-11-13T05:12:09.766Z,85.17
2018-11-13T05:14:40.767Z,90.20
2018-11-13T05:17:12.611Z,85.77
2018-11-13T05:19:44.461Z,89.00
2018-11-13T05:22:17.074Z,88.00
2018-11-13T05:24:48.150Z,75.30
2018-11-13T05:27:19.872Z,92.33
2018-11-13T05:29:50.954Z,82.43
2018-11-13T05:32:22.019Z,82.83
2018-11-13T05:34:55.896Z,81.27
2018-11-13T05:37:24.444Z,73.70
2018-11-13T05:39:55.487Z,72.23
2018-11-13T05:42:26.571Z,71.40
2018-11-13T05:44:57.615Z,70.50
2018-11-13T05:47:29.031Z,67.10
2018-11-13T05:50:02.106Z,77.67
2018-11-13T05:52:33.182Z,64.27
2018-11-13T05:55:04.228Z,62.90
2018-11-13T05:57:35.313Z,63.97
2018-11-13T06:00:09.129Z,75.77
2018-11-13T06:02:40.481Z,73.17
2018-11-13T06:05:12.262Z,72.97
2018-11-13T06:07:43.355Z,68.90
2018-11-13T06:10:14.866Z,69.50
2018-11-13T06:12:45.882Z,69.90
2018-11-13T06:15:17.562Z,73.80
2018-11-13T06:17:48.716Z,74.80
2018-11-13T06:20:19.737Z,75.73
2018-11-13T06:22:52.489Z,77.40
2018-11-13T06:25:24.387Z,82.80
2018-11-13T06:27:56.108Z,78.87
2018-11-13T06:30:27.469Z,82.30
2018-11-13T06:32:58.512Z,80.60
2018-11-13T06:35:31.200Z,82.57
2018-11-13T06:38:02.264Z,87.13
2018-11-13T06:40:34.092Z,81.33
2018-11-13T06:43:05.158Z,79.67
2018-11-13T06:45:36.573Z,93.53
2018-11-13T06:48:08.147Z,83.33
2018-11-13T06:50:39.185Z,83.70
2018-11-13T06:53:10.204Z,92.00
2018-11-13T06:55:43.896Z,86.77
2018-11-13T06:58:14.927Z,83.60
2018-11-13T07:00:47.320Z,89.27
2018-11-13T07:03:19.236Z,86.43
2018-11-13T07:05:50.404Z,86.10
2018-11-13T07:08:25.737Z,85.93
2018-11-13T07:10:57.168Z,87.93
2018-11-13T07:13:29.077Z,79.17
2018-11-13T07:16:00.533Z,89.53
2018-11-13T07:18:32.198Z,88.03
2018-11-13T07:21:04.433Z,97.60
2018-11-13T07:23:36.486Z,89.30
2018-11-13T07:26:08.515Z,94.40
2018-11-13T07:28:39.698Z,97.00
2018-11-13T07:31:11.784Z,92.10
2018-11-13T07:33:43.415Z,90.27
2018-11-13T07:57:23.738Z,77.23
2018-11-13T07:59:55.900Z,78.30
2018-11-13T08:02:27.634Z,75.43
2018-11-13T08:04:59.211Z,77.27
2018-11-13T08:07:35.342Z,70.63
2018-11-13T08:10:06.702Z,71.67
2018-11-13T08:12:38.814Z,67.67
2018-11-13T08:15:14.780Z,73.73
2018-11-13T08:17:46.752Z,70.77
2018-11-13T08:20:17.877Z,70.07
2018-11-13T08:22:49.666Z,64.87
2018-11-13T08:25:22.238Z,63.50
2018-11-13T08:27:55.705Z,77.80
2018-11-13T08:30:28.268Z,73.47
2018-11-13T08:32:59.589Z,72.00
2018-11-13T08:35:31.101Z,74.10
2018-11-13T08:38:03.005Z,70.23
2018-11-13T08:40:34.083Z,72.20
2018-11-13T08:43:06.189Z,72.93
2018-11-13T08:45:48.446Z,69.93
2018-11-13T08:48:19.516Z,71.27
2018-11-13T08:50:50.682Z,64.13
2018-11-13T08:53:24.289Z,60.40
2018-11-13T08:55:56.045Z,63.17
2018-11-13T08:58:29.257Z,61.37
2018-11-13T09:01:08.592Z,56.97
2018-11-13T09:03:40.797Z,58.47
2018-11-13T09:06:13.979Z,57.73
2018-11-13T09:08:45.186Z,55.77
2018-11-13T09:11:16.585Z,49.80
2018-11-13T09:13:49.765Z,54.07
2018-11-13T09:16:22.396Z,54.43
2018-11-13T09:18:56.081Z,49.97
2018-11-13T09:21:27.853Z,55.50
2018-11-13T09:23:59.247Z,49.67
2018-11-13T09:26:30.420Z,49.23
2018-11-13T09:29:03.167Z,45.63
2018-11-13T09:31:34.678Z,42.17
2018-11-13T09:34:06.785Z,45.00
2018-11-13T09:36:38.541Z,45.30
2018-11-13T09:39:11.902Z,47.07
2018-11-13T09:41:43.764Z,44.87
2018-11-13T09:44:14.783Z,38.87
2018-11-13T09:46:46.687Z,41.30
2018-11-13T09:49:17.794Z,42.43
2018-11-13T09:51:49.160Z,38.53
2018-11-13T09:54:20.293Z,41.73
2018-11-13T09:56:52.357Z,41.20
2018-11-13T09:59:24.073Z,36.93
2018-11-13T10:01:56.254Z,36.07
2018-11-13T10:04:27.613Z,33.30
2018-11-13T10:06:58.528Z,34.77
2018-11-13T10:09:29.581Z,32.63
2018-11-13T10:12:00.888Z,37.37
2018-11-13T10:14:31.906Z,32.60
2018-11-13T10:17:02.999Z,34.37
2018-11-13T10:19:35.222Z,32.33
2018-11-13T10:22:06.379Z,33.57
2018-11-13T10:24:37.768Z,33.63
2018-11-13T10:27:09.285Z,32.93
2018-11-13T10:29:41.432Z,36.17
2018-11-13T10:32:13.267Z,30.73
2018-11-13T10:34:44.645Z,26.60
2018-11-13T10:37:16.420Z,26.50
2018-11-13T10:39:47.483Z,22.37
2018-11-13T10:42:18.508Z,28.50
2018-11-13T10:44:50.115Z,27.73
2018-11-13T10:47:21.630Z,25.57
2018-11-13T10:49:53.571Z,26.07
2018-11-13T10:52:26.522Z,25.03
2018-11-13T10:54:59.281Z,20.73
2018-11-13T10:57:30.683Z,24.40
2018-11-13T11:00:02.229Z,23.03
2018-11-13T11:02:50.976Z,19.17
2018-11-13T11:05:22.424Z,17.17
2018-11-13T11:07:53.646Z,20.80
2018-11-13T11:10:25.202Z,17.17
2018-11-13T11:12:58.055Z,15.80
2018-11-13T11:15:29.221Z,16.70
2018-11-13T11:18:00.604Z,14.87
2018-11-13T11:20:32.034Z,13.13
2018-11-13T11:23:03.092Z,15.77
2018-11-13T11:25:34.681Z,12.37
2018-11-13T11:28:06.434Z,13.20
2018-11-13T11:30:37.988Z,12.60
2018-11-13T11:33:09.023Z,15.60
2018-11-13T11:35:40.045Z,15.17
2018-11-13T11:38:11.727Z,12.53
2018-11-13T11:40:42.739Z,9.67
2018-11-13T11:43:13.885Z,11.00
2018-11-13T11:45:44.877Z,11.10
2018-11-13T11:48:16.379Z,11.60
2018-11-13T11:50:48.078Z,9.73
2018-11-13T11:53:19.110Z,10.20
2018-11-13T11:55:50.144Z,10.57
2018-11-13T11:58:21.300Z,8.97
2018-11-13T12:00:52.652Z,12.17
2018-11-13T12:03:24.398Z,12.40
2018-11-13T12:05:55.706Z,9.93
2018-11-13T12:08:27.967Z,10.80
2018-11-13T12:10:59.019Z,12.07
2018-11-13T12:13:30.088Z,7.83
2018-11-13T12:16:01.744Z,12.00
2018-11-13T12:18:33.732Z,9.07
2018-11-13T12:21:04.730Z,10.73
2018-11-13T12:23:36.852Z,12.10
2018-11-13T12:26:08.979Z,11.40
2018-11-13T12:28:39.982Z,10.33
2018-11-13T12:31:11.282Z,11.43
2018-11-13T12:33:43.754Z,12.97
2018-11-13T12:36:15.040Z,12.13
2018-11-13T12:38:46.076Z,10.93
2018-11-13T12:41:17.496Z,14.63
2018-11-13T12:43:49.612Z,12.30
2018-11-13T12:46:21.025Z,13.83
2018-11-13T12:48:52.331Z,12.10
2018-11-13T12:51:40.733Z,12.67
2018-11-13T12:54:11.732Z,11.97
2018-11-13T12:56:44.444Z,10.13
2018-11-13T12:59:16.131Z,13.67
2018-11-13T13:01:47.223Z,16.13
2018-11-13T13:04:19.068Z,12.57
2018-11-13T13:06:50.156Z,14.03
2018-11-13T13:09:21.536Z,17.23
2018-11-13T13:11:53.499Z,12.30
2018-11-13T13:14:24.580Z,15.43
2018-11-13T13:16:55.595Z,14.30
2018-11-13T13:19:26.963Z,12.70
2018-11-13T13:21:58.264Z,13.00
2018-11-13T13:24:29.563Z,11.93
2018-11-13T13:27:00.623Z,13.67
2018-11-13T13:29:33.155Z,14.10
2018-11-13T13:32:04.214Z,8.73
2018-11-13T13:34:35.211Z,9.50
2018-11-13T13:37:06.340Z,18.00
2018-11-13T13:39:38.212Z,10.63
2018-11-13T13:42:09.255Z,10.00
2018-11-13T13:44:40.588Z,10.17
2018-11-13T13:47:11.711Z,8.30
2018-11-13T13:49:43.472Z,12.27
2018-11-13T13:52:15.195Z,13.90
2018-11-13T13:54:46.684Z,14.53
2018-11-13T13:57:18.111Z,8.33
2018-11-13T13:59:50.241Z,10.10
2018-11-13T14:02:21.071Z,8.17
2018-11-13T14:04:52.118Z,11.07
2018-11-13T14:07:23.320Z,8.70
2018-11-13T14:09:55.572Z,7.03
2018-11-13T14:12:28.324Z,7.40
2018-11-13T14:15:00.387Z,8.80
2018-11-13T14:17:32.261Z,7.87
2018-11-13T14:20:03.844Z,10.43
2018-11-13T14:22:34.902Z,9.00
2018-11-13T14:25:06.419Z,12.80
2018-11-13T14:27:37.641Z,6.87
2018-11-13T14:30:23.062Z,7.87
2018-11-13T14:32:55.318Z,8.07
2018-11-13T14:35:28.054Z,8.27
2018-11-13T14:37:59.130Z,7.70
2018-11-13T14:40:49.547Z,7.60
2018-11-13T14:43:20.567Z,10.63
2018-11-13T14:45:51.713Z,6.83
2018-11-13T14:48:22.726Z,6.13
2018-11-13T14:50:54.588Z,8.70
2018-11-13T14:53:27.147Z,9.27
2018-11-13T14:55:58.157Z,6.37
2018-11-13T14:58:29.155Z,5.83
2018-11-13T15:01:00.619Z,9.17
2018-11-13T15:03:31.611Z,6.73
2018-11-13T15:06:02.657Z,8.30
2018-11-13T15:08:34.663Z,5.43
2018-11-13T15:11:05.518Z,8.10
2018-11-13T15:13:36.549Z,8.73
2018-11-13T15:16:07.566Z,7.30
2018-11-13T15:18:38.949Z,10.33
2018-11-13T15:21:10.575Z,10.30
2018-11-13T15:23:42.259Z,7.73
2018-11-13T15:26:13.415Z,10.80
2018-11-13T15:28:46.071Z,7.27
2018-11-13T15:31:17.381Z,8.23
2018-11-13T15:33:48.408Z,13.97
2018-11-13T15:36:19.458Z,7.60
2018-11-13T15:38:50.791Z,8.53
2018-11-13T15:41:22.626Z,9.60
2018-11-13T15:43:54.053Z,9.60
2018-11-13T15:46:25.890Z,9.43
2018-11-13T15:48:57.349Z,7.23
2018-11-13T15:51:28.425Z,9.40
2018-11-13T15:54:00.655Z,8.03
2018-11-13T15:56:32.300Z,13.57
2018-11-13T15:59:14.623Z,6.07
2018-11-13T16:01:45.521Z,8.17
2018-11-13T16:04:16.807Z,8.67
2018-11-13T16:06:48.880Z,9.63
2018-11-13T16:09:20.137Z,8.87
2018-11-13T16:11:51.288Z,6.33
2018-11-13T16:14:23.367Z,8.67
2018-11-13T16:16:54.700Z,7.10
2018-11-13T16:19:26.437Z,10.30
2018-11-13T16:21:57.453Z,10.23
2018-11-13T16:24:29.412Z,8.23
2018-11-13T16:27:01.078Z,8.37
2018-11-13T16:29:33.157Z,6.70
2018-11-13T16:32:04.483Z,9.10
2018-11-13T16:34:35.522Z,8.70
2018-11-13T16:37:07.282Z,6.73
2018-11-13T16:39:39.311Z,7.37
2018-11-13T16:42:10.563Z,8.47
2018-11-13T16:44:42.283Z,10.93
2018-11-13T16:47:13.442Z,6.43
2018-11-13T16:49:45.221Z,8.40
2018-11-13T16:52:17.193Z,7.33
2018-11-13T16:54:51.706Z,15.00
2018-11-13T16:57:23.004Z,9.53
2018-11-13T16:59:54.079Z,9.97
2018-11-13T17:02:25.529Z,9.10
2018-11-13T17:05:16.276Z,14.23
2018-11-13T17:08:08.084Z,10.43
2018-11-13T17:10:43.461Z,14.10
2018-11-13T17:13:16.534Z,13.37
2018-11-13T17:15:57.149Z,6.90
2018-11-13T17:18:28.285Z,8.37
2018-11-13T17:20:59.773Z,12.63
2018-11-13T17:23:31.889Z,9.53
2018-11-13T17:26:02.685Z,11.53
2018-11-13T17:28:34.042Z,8.87
2018-11-13T17:31:05.290Z,10.77
2018-11-13T17:33:36.360Z,11.17
2018-11-13T17:36:07.901Z,8.40
2018-11-13T17:38:39.263Z,8.30
2018-11-13T17:41:10.631Z,7.50
2018-11-13T17:43:44.521Z,7.77
2018-11-13T17:46:15.944Z,9.37
2018-11-13T17:48:47.360Z,11.07
2018-11-13T17:51:19.192Z,7.40
2018-11-13T17:53:50.523Z,8.80
2018-11-13T17:56:21.586Z,11.83
2018-11-13T17:58:53.484Z,6.43
2018-11-13T18:01:24.528Z,14.13
2018-11-13T18:03:55.659Z,11.90
2018-11-13T18:06:27.939Z,9.33
2018-11-13T18:08:59.073Z,14.23
2018-11-13T18:11:30.156Z,9.07
2018-11-13T18:14:01.331Z,6.50
2018-11-13T18:16:32.302Z,6.77
2018-11-13T18:19:04.603Z,7.70
2018-11-13T18:21:39.851Z,7.67
2018-11-13T18:24:11.034Z,8.17
2018-11-13T18:26:42.137Z,10.67
2018-11-13T18:29:13.538Z,14.23
2018-11-13T18:31:44.896Z,11.47
2018-11-13T18:34:15.939Z,9.87
2018-11-13T18:36:47.008Z,10.27
2018-11-13T18:39:18.059Z,7.83
2018-11-13T18:41:49.179Z,9.73
2018-11-13T18:44:20.414Z,12.10
2018-11-13T18:46:52.569Z,9.97
2018-11-13T18:49:24.487Z,14.17
2018-11-13T18:51:55.479Z,10.83
2018-11-13T18:54:26.682Z,7.47
2018-11-13T18:56:57.684Z,7.97
2018-11-13T18:59:29.145Z,8.40
2018-11-13T19:02:00.436Z,10.53
2018-11-13T19:04:31.590Z,11.23
2018-11-13T19:07:02.617Z,10.33
2018-11-13T19:09:34.016Z,13.27
2018-11-13T19:12:05.594Z,9.70
2018-11-13T19:14:36.594Z,12.27
2018-11-13T19:17:08.355Z,11.27
2018-11-13T19:19:39.234Z,13.40
2018-11-13T19:22:10.373Z,10.63
2018-11-13T19:24:41.452Z,10.23
2018-11-13T19:27:12.476Z,8.33
2018-11-13T19:29:44.117Z,14.47
2018-11-13T19:32:15.438Z,13.60
2018-11-13T19:34:47.599Z,9.67
2018-11-13T19:37:20.049Z,7.83
2018-11-13T19:39:51.156Z,12.00
2018-11-13T19:42:22.539Z,14.33
2018-11-13T19:44:54.653Z,14.43
2018-11-13T19:47:27.232Z,11.80
2018-11-13T19:49:58.583Z,17.17
2018-11-13T19:52:29.601Z,10.90
2018-11-13T19:55:01.059Z,13.47
2018-11-13T19:57:32.100Z,11.40
2018-11-13T20:00:04.026Z,12.40
2018-11-13T20:02:35.077Z,9.87
2018-11-13T20:05:14.533Z,17.97
2018-11-13T20:07:45.561Z,13.57
2018-11-13T20:10:20.771Z,13.10
2018-11-13T20:12:53.227Z,11.97
2018-11-13T20:15:25.298Z,10.23
2018-11-13T20:17:56.452Z,11.83
2018-11-13T20:20:31.639Z,8.90
2018-11-13T20:23:04.408Z,10.77
2018-11-13T20:25:36.237Z,18.60
2018-11-13T20:28:07.346Z,13.97
2018-11-13T20:30:39.947Z,14.60
2018-11-13T20:33:11.314Z,13.07
2018-11-13T20:35:42.701Z,12.90
2018-11-13T20:38:13.776Z,16.87
2018-11-13T20:40:45.486Z,17.53
2018-11-13T20:43:17.033Z,12.97
2018-11-13T20:45:47.978Z,14.87
2018-11-13T20:48:19.051Z,14.77
2018-11-13T20:50:50.398Z,15.87
2018-11-13T20:53:21.507Z,16.93
2018-11-13T20:55:52.577Z,12.03
2018-11-13T20:58:23.610Z,13.37
2018-11-13T21:00:55.132Z,16.17
2018-11-13T21:03:26.365Z,15.63
2018-11-13T21:05:57.821Z,15.13
2018-11-13T21:08:28.853Z,14.37
2018-11-13T21:11:01.553Z,15.30
2018-11-13T21:13:32.678Z,14.17
2018-11-13T21:16:03.707Z,18.87
2018-11-13T21:18:35.242Z,14.17
2018-11-13T21:21:07.309Z,15.07
2018-11-13T21:23:38.970Z,17.13
2018-11-13T21:26:09.818Z,11.50
2018-11-13T21:28:40.827Z,19.67
2018-11-13T21:31:11.894Z,20.17
2018-11-13T21:33:43.038Z,21.77
2018-11-13T21:36:14.831Z,15.43
2018-11-13T21:38:46.568Z,24.73
2018-11-13T21:41:18.184Z,17.97
2018-11-13T21:43:49.526Z,16.47
2018-11-13T21:46:21.056Z,21.17
2018-11-13T21:48:52.177Z,17.50
2018-11-13T21:51:23.536Z,19.40
2018-11-13T21:53:54.884Z,17.13
2018-11-13T21:56:25.921Z,17.17
2018-11-13T21:58:57.983Z,20.93
2018-11-13T22:01:29.317Z,18.00
2018-11-13T22:04:00.737Z,12.40
2018-11-13T22:06:31.725Z,20.23
2018-11-13T22:09:03.229Z,21.90
2018-11-13T22:11:35.334Z,21.23
2018-11-13T22:14:06.765Z,19.93
2018-11-13T22:16:38.012Z,20.60
2018-11-13T22:19:09.385Z,22.03
2018-11-13T22:21:40.438Z,19.17
2018-11-13T22:24:11.464Z,22.33
2018-11-13T22:26:42.577Z,19.37
2018-11-13T22:29:14.595Z,18.63
2018-11-13T22:31:46.317Z,16.73
2018-11-13T22:34:17.696Z,16.63
2018-11-13T22:36:48.721Z,19.43
2018-11-13T22:39:21.000Z,21.13
2018-11-13T22:41:52.282Z,18.33
2018-11-13T22:44:24.227Z,18.10
2018-11-13T22:47:04.772Z,19.03
2018-11-13T22:49:36.657Z,22.20
2018-11-13T22:52:07.997Z,17.77
2018-11-13T22:54:39.599Z,20.20
2018-11-13T22:57:14.725Z,15.20
2018-11-13T22:59:46.388Z,19.13
2018-11-13T23:02:18.623Z,17.07
2018-11-13T23:04:49.631Z,17.50
2018-11-13T23:07:20.684Z,25.00
2018-11-13T23:09:53.290Z,17.57
2018-11-13T23:12:24.260Z,20.37
2018-11-13T23:14:55.451Z,22.30
2018-11-13T23:17:27.124Z,27.63
2018-11-13T23:19:58.604Z,17.27
2018-11-13T23:22:29.762Z,23.20
2018-11-13T23:25:00.978Z,16.00
2018-11-13T23:27:32.805Z,22.33
2018-11-13T23:30:05.287Z,17.80
2018-11-13T23:32:36.643Z,26.43
2018-11-13T23:35:08.507Z,17.37
2018-11-13T23:37:40.443Z,22.63
2018-11-13T23:40:13.529Z,20.20
2018-11-13T23:42:44.784Z,21.00
2018-11-13T23:45:16.884Z,22.57
2018-11-13T23:47:49.443Z,22.37
2018-11-13T23:50:20.911Z,24.50
2018-11-13T23:52:53.085Z,25.67
2018-11-13T23:55:24.138Z,22.33
2018-11-13T23:57:55.379Z,26.83
